sensor_id;sensor_type;location;lat;lon;timestamp;temperature;humidity
22112;DHT22;11222;50.872;4.312;2022-07-06T00:01:28;16.20;99.90
22112;DHT22;11222;50.872;4.312;2022-07-06T00:03:54;16.20;99.90
22112;DHT22;11222;50.872;4.312;2022-07-06T00:06:19;16.20;99.90
22112;DHT22;11222;50.872;4.312;2022-07-06T00:08:45;16.10;99.90
22112;DHT22;11222;50.872;4.312;2022-07-06T00:11:11;16.10;99.90
22112;DHT22;11222;50.872;4.312;2022-07-06T00:13:37;16.10;99.90
22112;DHT22;11222;50.872;4.312;2022-07-06T00:16:03;16.20;99.90
22112;DHT22;11222;50.872;4.312;2022-07-06T00:18:28;16.10;99.90
22112;DHT22;11222;50.872;4.312;2022-07-06T00:20:54;16.00;99.90
22112;DHT22;11222;50.872;4.312;2022-07-06T00:23:20;16.00;99.90
22112;DHT22;11222;50.872;4.312;2022-07-06T00:25:45;16.00;99.90
22112;DHT22;11222;50.872;4.312;2022-07-06T00:28:11;15.90;99.90
22112;DHT22;11222;50.872;4.312;2022-07-06T00:30:37;15.90;99.90
22112;DHT22;11222;50.872;4.312;2022-07-06T00:33:02;15.90;99.90
22112;DHT22;11222;50.872;4.312;2022-07-06T00:35:28;15.90;99.90
22112;DHT22;11222;50.872;4.312;2022-07-06T00:37:54;15.90;99.90
22112;DHT22;11222;50.872;4.312;2022-07-06T00:40:19;15.80;99.90
22112;DHT22;11222;50.872;4.312;2022-07-06T00:42:46;15.90;99.90
22112;DHT22;11222;50.872;4.312;2022-07-06T00:45:14;15.90;99.90
22112;DHT22;11222;50.872;4.312;2022-07-06T00:47:40;15.80;99.90
22112;DHT22;11222;50.872;4.312;2022-07-06T00:50:08;15.90;99.90
22112;DHT22;11222;50.872;4.312;2022-07-06T00:52:41;15.80;99.90
22112;DHT22;11222;50.872;4.312;2022-07-06T00:55:10;15.70;99.90
22112;DHT22;11222;50.872;4.312;2022-07-06T00:57:37;15.70;99.90
22112;DHT22;11222;50.872;4.312;2022-07-06T01:00:04;15.60;99.90
22112;DHT22;11222;50.872;4.312;2022-07-06T01:02:31;15.70;99.90
22112;DHT22;11222;50.872;4.312;2022-07-06T01:04:57;15.60;99.90
22112;DHT22;11222;50.872;4.312;2022-07-06T01:07:23;15.50;99.90
22112;DHT22;11222;50.872;4.312;2022-07-06T01:09:48;15.50;99.90
22112;DHT22;11222;50.872;4.312;2022-07-06T01:12:14;15.40;99.90
22112;DHT22;11222;50.872;4.312;2022-07-06T01:14:40;15.40;99.90
22112;DHT22;11222;50.872;4.312;2022-07-06T01:17:07;15.30;99.90
22112;DHT22;11222;50.872;4.312;2022-07-06T01:19:33;15.30;99.90
22112;DHT22;11222;50.872;4.312;2022-07-06T01:21:59;15.30;99.90
22112;DHT22;11222;50.872;4.312;2022-07-06T01:24:25;15.30;99.90
22112;DHT22;11222;50.872;4.312;2022-07-06T01:26:51;15.30;99.90
22112;DHT22;11222;50.872;4.312;2022-07-06T01:29:17;15.30;99.90
22112;DHT22;11222;50.872;4.312;2022-07-06T01:31:50;15.40;99.90
22112;DHT22;11222;50.872;4.312;2022-07-06T01:34:17;15.40;99.90
22112;DHT22;11222;50.872;4.312;2022-07-06T01:36:43;15.30;99.90
22112;DHT22;11222;50.872;4.312;2022-07-06T01:39:09;15.40;99.90
22112;DHT22;11222;50.872;4.312;2022-07-06T01:41:36;15.20;99.90
22112;DHT22;11222;50.872;4.312;2022-07-06T01:44:02;15.20;99.90
22112;DHT22;11222;50.872;4.312;2022-07-06T01:46:28;15.10;99.90
22112;DHT22;11222;50.872;4.312;2022-07-06T01:48:54;15.10;99.90
22112;DHT22;11222;50.872;4.312;2022-07-06T01:51:20;15.00;99.90
22112;DHT22;11222;50.872;4.312;2022-07-06T01:53:46;14.90;99.90
22112;DHT22;11222;50.872;4.312;2022-07-06T01:56:12;14.90;99.90
22112;DHT22;11222;50.872;4.312;2022-07-06T01:58:38;14.90;99.90
22112;DHT22;11222;50.872;4.312;2022-07-06T02:01:09;14.80;99.90
22112;DHT22;11222;50.872;4.312;2022-07-06T02:03:35;14.90;99.90
22112;DHT22;11222;50.872;4.312;2022-07-06T02:06:01;14.80;99.90
22112;DHT22;11222;50.872;4.312;2022-07-06T02:08:26;14.80;99.90
22112;DHT22;11222;50.872;4.312;2022-07-06T02:10:52;14.80;99.90
22112;DHT22;11222;50.872;4.312;2022-07-06T02:13:18;14.80;99.90
22112;DHT22;11222;50.872;4.312;2022-07-06T02:15:44;14.80;99.90
22112;DHT22;11222;50.872;4.312;2022-07-06T02:18:09;14.80;99.90
22112;DHT22;11222;50.872;4.312;2022-07-06T02:20:35;14.80;99.90
22112;DHT22;11222;50.872;4.312;2022-07-06T02:23:00;14.80;99.90
22112;DHT22;11222;50.872;4.312;2022-07-06T02:25:26;14.80;99.90
22112;DHT22;11222;50.872;4.312;2022-07-06T02:27:52;14.80;99.90
22112;DHT22;11222;50.872;4.312;2022-07-06T02:30:18;14.80;99.90
22112;DHT22;11222;50.872;4.312;2022-07-06T02:32:43;14.80;99.90
22112;DHT22;11222;50.872;4.312;2022-07-06T02:35:09;14.80;99.90
22112;DHT22;11222;50.872;4.312;2022-07-06T02:37:35;14.70;99.90
22112;DHT22;11222;50.872;4.312;2022-07-06T02:40:01;14.60;99.90
22112;DHT22;11222;50.872;4.312;2022-07-06T02:42:26;14.60;99.90
22112;DHT22;11222;50.872;4.312;2022-07-06T02:44:53;14.50;99.90
22112;DHT22;11222;50.872;4.312;2022-07-06T02:47:19;14.40;99.90
22112;DHT22;11222;50.872;4.312;2022-07-06T02:49:45;14.50;99.90
22112;DHT22;11222;50.872;4.312;2022-07-06T02:52:10;14.50;99.90
22112;DHT22;11222;50.872;4.312;2022-07-06T02:54:36;14.50;99.90
22112;DHT22;11222;50.872;4.312;2022-07-06T02:57:02;14.50;99.90
22112;DHT22;11222;50.872;4.312;2022-07-06T02:59:28;14.50;99.90
22112;DHT22;11222;50.872;4.312;2022-07-06T03:01:53;14.50;99.90
22112;DHT22;11222;50.872;4.312;2022-07-06T03:04:19;14.60;99.90
22112;DHT22;11222;50.872;4.312;2022-07-06T03:06:45;14.50;99.90
22112;DHT22;11222;50.872;4.312;2022-07-06T03:09:11;14.50;99.90
22112;DHT22;11222;50.872;4.312;2022-07-06T03:11:36;14.50;99.90
22112;DHT22;11222;50.872;4.312;2022-07-06T03:14:05;14.40;99.90
22112;DHT22;11222;50.872;4.312;2022-07-06T03:16:32;14.30;99.90
22112;DHT22;11222;50.872;4.312;2022-07-06T03:18:58;14.30;99.90
22112;DHT22;11222;50.872;4.312;2022-07-06T03:21:24;14.30;99.90
22112;DHT22;11222;50.872;4.312;2022-07-06T03:23:50;14.30;99.90
22112;DHT22;11222;50.872;4.312;2022-07-06T03:26:16;14.30;99.90
22112;DHT22;11222;50.872;4.312;2022-07-06T03:28:42;14.30;99.90
22112;DHT22;11222;50.872;4.312;2022-07-06T03:31:07;14.20;99.90
22112;DHT22;11222;50.872;4.312;2022-07-06T03:33:33;14.20;99.90
22112;DHT22;11222;50.872;4.312;2022-07-06T03:35:59;14.10;99.90
22112;DHT22;11222;50.872;4.312;2022-07-06T03:38:24;14.20;99.90
22112;DHT22;11222;50.872;4.312;2022-07-06T03:40:50;14.20;99.90
22112;DHT22;11222;50.872;4.312;2022-07-06T03:43:16;14.30;99.90
22112;DHT22;11222;50.872;4.312;2022-07-06T03:45:43;14.30;99.90
22112;DHT22;11222;50.872;4.312;2022-07-06T03:48:08;14.30;99.90
22112;DHT22;11222;50.872;4.312;2022-07-06T03:50:34;14.30;99.90
22112;DHT22;11222;50.872;4.312;2022-07-06T03:53:00;14.40;99.90
22112;DHT22;11222;50.872;4.312;2022-07-06T03:55:25;14.40;99.90
22112;DHT22;11222;50.872;4.312;2022-07-06T03:57:51;14.40;99.90
22112;DHT22;11222;50.872;4.312;2022-07-06T04:00:17;14.50;99.90
22112;DHT22;11222;50.872;4.312;2022-07-06T04:02:42;14.60;99.90
22112;DHT22;11222;50.872;4.312;2022-07-06T04:05:08;14.60;99.90
22112;DHT22;11222;50.872;4.312;2022-07-06T04:07:34;14.70;99.90
22112;DHT22;11222;50.872;4.312;2022-07-06T04:09:59;14.70;99.90
22112;DHT22;11222;50.872;4.312;2022-07-06T04:12:25;14.70;99.90
22112;DHT22;11222;50.872;4.312;2022-07-06T04:14:51;14.70;99.90
22112;DHT22;11222;50.872;4.312;2022-07-06T04:17:16;14.80;99.90
22112;DHT22;11222;50.872;4.312;2022-07-06T04:20:00;15.00;99.90
22112;DHT22;11222;50.872;4.312;2022-07-06T04:22:26;15.00;99.90
22112;DHT22;11222;50.872;4.312;2022-07-06T04:24:52;15.10;99.90
22112;DHT22;11222;50.872;4.312;2022-07-06T04:27:17;15.20;99.90
22112;DHT22;11222;50.872;4.312;2022-07-06T04:29:43;15.20;99.90
22112;DHT22;11222;50.872;4.312;2022-07-06T04:32:09;15.20;99.90
22112;DHT22;11222;50.872;4.312;2022-07-06T04:34:34;15.20;99.90
22112;DHT22;11222;50.872;4.312;2022-07-06T04:37:00;15.40;99.90
22112;DHT22;11222;50.872;4.312;2022-07-06T04:39:26;15.40;99.90
22112;DHT22;11222;50.872;4.312;2022-07-06T04:41:51;15.50;99.90
22112;DHT22;11222;50.872;4.312;2022-07-06T04:44:17;15.50;99.90
22112;DHT22;11222;50.872;4.312;2022-07-06T04:46:42;15.80;99.90
22112;DHT22;11222;50.872;4.312;2022-07-06T04:49:08;16.30;99.90
22112;DHT22;11222;50.872;4.312;2022-07-06T04:51:34;16.80;99.90
22112;DHT22;11222;50.872;4.312;2022-07-06T04:53:59;17.30;99.90
22112;DHT22;11222;50.872;4.312;2022-07-06T04:56:25;17.70;99.90
22112;DHT22;11222;50.872;4.312;2022-07-06T04:58:50;18.20;99.90
22112;DHT22;11222;50.872;4.312;2022-07-06T05:01:16;18.30;99.90
22112;DHT22;11222;50.872;4.312;2022-07-06T05:03:42;18.00;99.90
22112;DHT22;11222;50.872;4.312;2022-07-06T05:06:08;17.90;99.90
22112;DHT22;11222;50.872;4.312;2022-07-06T05:08:34;17.70;99.90
22112;DHT22;11222;50.872;4.312;2022-07-06T05:11:00;17.50;99.90
22112;DHT22;11222;50.872;4.312;2022-07-06T05:13:26;17.20;99.90
22112;DHT22;11222;50.872;4.312;2022-07-06T05:15:51;17.20;99.90
22112;DHT22;11222;50.872;4.312;2022-07-06T05:18:17;17.10;99.90
22112;DHT22;11222;50.872;4.312;2022-07-06T05:20:43;17.00;99.90
22112;DHT22;11222;50.872;4.312;2022-07-06T05:23:09;16.80;99.90
22112;DHT22;11222;50.872;4.312;2022-07-06T05:25:35;16.60;99.90
22112;DHT22;11222;50.872;4.312;2022-07-06T05:28:02;16.50;99.90
22112;DHT22;11222;50.872;4.312;2022-07-06T05:30:28;16.40;99.90
22112;DHT22;11222;50.872;4.312;2022-07-06T05:32:54;16.50;99.90
22112;DHT22;11222;50.872;4.312;2022-07-06T05:35:20;16.50;99.90
22112;DHT22;11222;50.872;4.312;2022-07-06T05:37:45;16.60;99.90
22112;DHT22;11222;50.872;4.312;2022-07-06T05:40:11;16.60;99.90
22112;DHT22;11222;50.872;4.312;2022-07-06T05:42:37;16.60;99.90
22112;DHT22;11222;50.872;4.312;2022-07-06T05:45:03;16.80;99.90
22112;DHT22;11222;50.872;4.312;2022-07-06T05:47:29;17.00;99.90
22112;DHT22;11222;50.872;4.312;2022-07-06T05:50:14;17.10;99.90
22112;DHT22;11222;50.872;4.312;2022-07-06T05:52:41;17.50;99.90
22112;DHT22;11222;50.872;4.312;2022-07-06T05:55:11;17.60;99.90
22112;DHT22;11222;50.872;4.312;2022-07-06T05:57:38;17.70;99.90
22112;DHT22;11222;50.872;4.312;2022-07-06T06:00:05;17.90;99.90
22112;DHT22;11222;50.872;4.312;2022-07-06T06:02:41;17.90;99.90
22112;DHT22;11222;50.872;4.312;2022-07-06T06:05:08;18.20;99.90
22112;DHT22;11222;50.872;4.312;2022-07-06T06:07:35;18.40;99.90
22112;DHT22;11222;50.872;4.312;2022-07-06T06:10:07;18.50;99.90
22112;DHT22;11222;50.872;4.312;2022-07-06T06:12:33;18.40;99.90
22112;DHT22;11222;50.872;4.312;2022-07-06T06:14:59;18.60;99.90
22112;DHT22;11222;50.872;4.312;2022-07-06T06:17:25;18.70;99.90
22112;DHT22;11222;50.872;4.312;2022-07-06T06:19:51;19.00;99.90
22112;DHT22;11222;50.872;4.312;2022-07-06T06:22:16;19.20;99.90
22112;DHT22;11222;50.872;4.312;2022-07-06T06:24:42;19.40;99.90
22112;DHT22;11222;50.872;4.312;2022-07-06T06:27:08;19.60;99.90
22112;DHT22;11222;50.872;4.312;2022-07-06T06:29:33;19.70;99.90
22112;DHT22;11222;50.872;4.312;2022-07-06T06:31:59;19.60;99.90
22112;DHT22;11222;50.872;4.312;2022-07-06T06:34:25;19.40;99.90
22112;DHT22;11222;50.872;4.312;2022-07-06T06:36:50;19.40;99.90
22112;DHT22;11222;50.872;4.312;2022-07-06T06:39:16;19.40;99.90
22112;DHT22;11222;50.872;4.312;2022-07-06T06:41:42;19.60;99.90
22112;DHT22;11222;50.872;4.312;2022-07-06T06:44:07;19.90;99.90
22112;DHT22;11222;50.872;4.312;2022-07-06T06:46:33;20.00;99.90
22112;DHT22;11222;50.872;4.312;2022-07-06T06:48:59;20.00;99.90
22112;DHT22;11222;50.872;4.312;2022-07-06T06:51:24;20.00;99.90
22112;DHT22;11222;50.872;4.312;2022-07-06T06:53:50;20.50;99.90
22112;DHT22;11222;50.872;4.312;2022-07-06T06:56:16;20.80;99.90
22112;DHT22;11222;50.872;4.312;2022-07-06T06:58:42;20.80;99.90
22112;DHT22;11222;50.872;4.312;2022-07-06T07:01:08;20.70;99.90
22112;DHT22;11222;50.872;4.312;2022-07-06T07:03:34;20.80;99.90
22112;DHT22;11222;50.872;4.312;2022-07-06T07:06:00;20.70;99.90
22112;DHT22;11222;50.872;4.312;2022-07-06T07:08:25;20.60;99.90
22112;DHT22;11222;50.872;4.312;2022-07-06T07:10:51;20.60;99.90
22112;DHT22;11222;50.872;4.312;2022-07-06T07:13:17;20.90;99.90
22112;DHT22;11222;50.872;4.312;2022-07-06T07:15:43;20.40;99.90
22112;DHT22;11222;50.872;4.312;2022-07-06T07:18:08;20.80;99.90
22112;DHT22;11222;50.872;4.312;2022-07-06T07:20:34;21.20;99.90
22112;DHT22;11222;50.872;4.312;2022-07-06T07:23:00;21.70;99.90
22112;DHT22;11222;50.872;4.312;2022-07-06T07:25:26;21.70;99.90
22112;DHT22;11222;50.872;4.312;2022-07-06T07:27:52;21.90;99.90
22112;DHT22;11222;50.872;4.312;2022-07-06T07:30:18;22.00;99.90
22112;DHT22;11222;50.872;4.312;2022-07-06T07:32:43;22.30;99.90
22112;DHT22;11222;50.872;4.312;2022-07-06T07:35:09;22.50;99.90
22112;DHT22;11222;50.872;4.312;2022-07-06T07:37:36;23.30;99.90
22112;DHT22;11222;50.872;4.312;2022-07-06T07:40:02;24.40;99.90
22112;DHT22;11222;50.872;4.312;2022-07-06T07:42:29;23.80;99.90
22112;DHT22;11222;50.872;4.312;2022-07-06T07:44:55;24.20;99.90
22112;DHT22;11222;50.872;4.312;2022-07-06T07:47:21;24.30;99.90
22112;DHT22;11222;50.872;4.312;2022-07-06T07:49:46;25.40;99.90
22112;DHT22;11222;50.872;4.312;2022-07-06T07:52:12;25.30;99.90
22112;DHT22;11222;50.872;4.312;2022-07-06T07:54:38;25.80;99.90
22112;DHT22;11222;50.872;4.312;2022-07-06T07:57:04;24.80;99.90
22112;DHT22;11222;50.872;4.312;2022-07-06T07:59:30;24.60;99.90
22112;DHT22;11222;50.872;4.312;2022-07-06T08:01:56;24.80;99.90
22112;DHT22;11222;50.872;4.312;2022-07-06T08:04:22;25.60;99.90
22112;DHT22;11222;50.872;4.312;2022-07-06T08:06:48;25.60;99.90
22112;DHT22;11222;50.872;4.312;2022-07-06T08:09:13;25.90;99.90
22112;DHT22;11222;50.872;4.312;2022-07-06T08:11:39;26.60;99.90
22112;DHT22;11222;50.872;4.312;2022-07-06T08:14:05;28.30;99.90
22112;DHT22;11222;50.872;4.312;2022-07-06T08:16:31;27.50;99.90
22112;DHT22;11222;50.872;4.312;2022-07-06T08:18:57;28.10;99.90
22112;DHT22;11222;50.872;4.312;2022-07-06T08:21:22;27.20;99.90
22112;DHT22;11222;50.872;4.312;2022-07-06T08:23:49;27.20;99.90
22112;DHT22;11222;50.872;4.312;2022-07-06T08:26:14;27.40;99.90
22112;DHT22;11222;50.872;4.312;2022-07-06T08:28:40;27.70;99.90
22112;DHT22;11222;50.872;4.312;2022-07-06T08:31:06;26.50;99.90
22112;DHT22;11222;50.872;4.312;2022-07-06T08:33:33;26.10;99.90
22112;DHT22;11222;50.872;4.312;2022-07-06T08:35:58;25.90;99.90
22112;DHT22;11222;50.872;4.312;2022-07-06T08:38:24;26.40;99.90
22112;DHT22;11222;50.872;4.312;2022-07-06T08:40:51;27.90;99.90
22112;DHT22;11222;50.872;4.312;2022-07-06T08:43:17;27.90;99.90
22112;DHT22;11222;50.872;4.312;2022-07-06T08:45:43;27.90;99.90
22112;DHT22;11222;50.872;4.312;2022-07-06T08:48:11;27.60;99.90
22112;DHT22;11222;50.872;4.312;2022-07-06T08:50:37;27.50;99.90
22112;DHT22;11222;50.872;4.312;2022-07-06T08:53:04;27.40;99.90
22112;DHT22;11222;50.872;4.312;2022-07-06T08:55:30;26.80;99.90
22112;DHT22;11222;50.872;4.312;2022-07-06T08:57:56;26.30;99.90
22112;DHT22;11222;50.872;4.312;2022-07-06T09:00:23;25.90;99.90
22112;DHT22;11222;50.872;4.312;2022-07-06T09:02:50;25.80;99.90
22112;DHT22;11222;50.872;4.312;2022-07-06T09:05:21;27.30;99.90
22112;DHT22;11222;50.872;4.312;2022-07-06T09:07:52;28.90;99.90
22112;DHT22;11222;50.872;4.312;2022-07-06T09:10:20;29.00;99.90
22112;DHT22;11222;50.872;4.312;2022-07-06T09:12:46;27.90;99.90
22112;DHT22;11222;50.872;4.312;2022-07-06T09:15:12;26.10;99.90
22112;DHT22;11222;50.872;4.312;2022-07-06T09:17:39;26.70;99.90
22112;DHT22;11222;50.872;4.312;2022-07-06T09:20:09;26.70;99.90
22112;DHT22;11222;50.872;4.312;2022-07-06T09:22:36;26.20;99.90
22112;DHT22;11222;50.872;4.312;2022-07-06T09:25:20;25.50;99.90
22112;DHT22;11222;50.872;4.312;2022-07-06T09:27:47;24.50;99.90
22112;DHT22;11222;50.872;4.312;2022-07-06T09:30:15;24.30;99.90
22112;DHT22;11222;50.872;4.312;2022-07-06T09:32:46;25.00;99.90
22112;DHT22;11222;50.872;4.312;2022-07-06T09:35:28;26.10;99.90
22112;DHT22;11222;50.872;4.312;2022-07-06T09:38:23;27.10;99.90
22112;DHT22;11222;50.872;4.312;2022-07-06T09:40:51;27.70;99.90
22112;DHT22;11222;50.872;4.312;2022-07-06T09:43:19;27.90;99.90
22112;DHT22;11222;50.872;4.312;2022-07-06T09:45:48;27.30;99.90
22112;DHT22;11222;50.872;4.312;2022-07-06T09:48:25;26.50;99.90
22112;DHT22;11222;50.872;4.312;2022-07-06T09:51:02;25.60;99.90
22112;DHT22;11222;50.872;4.312;2022-07-06T09:53:35;25.20;99.90
22112;DHT22;11222;50.872;4.312;2022-07-06T09:56:00;24.80;99.90
22112;DHT22;11222;50.872;4.312;2022-07-06T09:58:27;24.40;99.90
22112;DHT22;11222;50.872;4.312;2022-07-06T10:00:53;24.30;99.90
22112;DHT22;11222;50.872;4.312;2022-07-06T10:03:19;24.20;99.90
22112;DHT22;11222;50.872;4.312;2022-07-06T10:05:47;24.10;99.90
22112;DHT22;11222;50.872;4.312;2022-07-06T10:08:15;23.80;99.90
22112;DHT22;11222;50.872;4.312;2022-07-06T10:10:42;24.00;99.90
22112;DHT22;11222;50.872;4.312;2022-07-06T10:13:09;24.50;99.90
22112;DHT22;11222;50.872;4.312;2022-07-06T10:15:39;24.80;99.90
22112;DHT22;11222;50.872;4.312;2022-07-06T10:18:08;25.50;99.90
22112;DHT22;11222;50.872;4.312;2022-07-06T10:20:36;25.40;99.90
22112;DHT22;11222;50.872;4.312;2022-07-06T10:23:05;24.90;99.90
22112;DHT22;11222;50.872;4.312;2022-07-06T10:25:32;25.10;99.90
22112;DHT22;11222;50.872;4.312;2022-07-06T10:27:59;25.90;99.90
22112;DHT22;11222;50.872;4.312;2022-07-06T10:30:25;26.20;99.90
22112;DHT22;11222;50.872;4.312;2022-07-06T10:32:55;26.20;99.90
22112;DHT22;11222;50.872;4.312;2022-07-06T10:35:21;25.50;99.90
22112;DHT22;11222;50.872;4.312;2022-07-06T10:38:06;24.90;99.90
22112;DHT22;11222;50.872;4.312;2022-07-06T10:40:39;24.10;99.90
22112;DHT22;11222;50.872;4.312;2022-07-06T10:43:52;24.20;99.90
22112;DHT22;11222;50.872;4.312;2022-07-06T10:46:17;24.70;99.90
22112;DHT22;11222;50.872;4.312;2022-07-06T10:48:47;25.40;99.90
22112;DHT22;11222;50.872;4.312;2022-07-06T10:51:33;25.70;99.90
22112;DHT22;11222;50.872;4.312;2022-07-06T10:54:05;26.30;99.90
22112;DHT22;11222;50.872;4.312;2022-07-06T10:56:33;27.20;99.90
22112;DHT22;11222;50.872;4.312;2022-07-06T11:01:40;27.40;99.90
22112;DHT22;11222;50.872;4.312;2022-07-06T11:04:08;27.80;99.90
22112;DHT22;11222;50.872;4.312;2022-07-06T11:06:36;29.10;99.90
22112;DHT22;11222;50.872;4.312;2022-07-06T11:09:07;30.70;99.90
22112;DHT22;11222;50.872;4.312;2022-07-06T11:14:07;31.50;97.20
22112;DHT22;11222;50.872;4.312;2022-07-06T11:16:34;30.40;97.50
22112;DHT22;11222;50.872;4.312;2022-07-06T11:21:46;27.70;99.20
22112;DHT22;11222;50.872;4.312;2022-07-06T11:24:20;25.90;99.90
22112;DHT22;11222;50.872;4.312;2022-07-06T11:26:49;25.50;99.90
22112;DHT22;11222;50.872;4.312;2022-07-06T11:29:17;26.30;99.90
22112;DHT22;11222;50.872;4.312;2022-07-06T11:31:44;26.70;99.90
22112;DHT22;11222;50.872;4.312;2022-07-06T11:34:12;26.50;99.90
22112;DHT22;11222;50.872;4.312;2022-07-06T11:36:39;26.20;99.90
22112;DHT22;11222;50.872;4.312;2022-07-06T11:39:06;25.80;99.90
22112;DHT22;11222;50.872;4.312;2022-07-06T11:41:32;27.30;99.90
22112;DHT22;11222;50.872;4.312;2022-07-06T11:43:58;28.30;99.90
22112;DHT22;11222;50.872;4.312;2022-07-06T11:46:26;27.60;99.50
22112;DHT22;11222;50.872;4.312;2022-07-06T11:51:27;29.20;97.90
22112;DHT22;11222;50.872;4.312;2022-07-06T11:53:58;28.90;97.70
22112;DHT22;11222;50.872;4.312;2022-07-06T11:56:28;29.20;98.30
22112;DHT22;11222;50.872;4.312;2022-07-06T11:58:55;28.20;98.40
22112;DHT22;11222;50.872;4.312;2022-07-06T12:01:22;26.80;99.50
22112;DHT22;11222;50.872;4.312;2022-07-06T12:03:49;26.50;99.90
22112;DHT22;11222;50.872;4.312;2022-07-06T12:06:23;25.90;99.90
22112;DHT22;11222;50.872;4.312;2022-07-06T12:08:57;25.90;99.90
22112;DHT22;11222;50.872;4.312;2022-07-06T12:11:33;25.40;99.90
22112;DHT22;11222;50.872;4.312;2022-07-06T12:14:01;25.30;99.90
22112;DHT22;11222;50.872;4.312;2022-07-06T12:16:32;25.10;99.90
22112;DHT22;11222;50.872;4.312;2022-07-06T12:19:00;24.40;99.90
22112;DHT22;11222;50.872;4.312;2022-07-06T12:21:27;24.00;99.90
22112;DHT22;11222;50.872;4.312;2022-07-06T12:23:53;23.80;99.90
22112;DHT22;11222;50.872;4.312;2022-07-06T12:26:24;24.10;99.90
22112;DHT22;11222;50.872;4.312;2022-07-06T12:31:38;24.00;99.90
22112;DHT22;11222;50.872;4.312;2022-07-06T12:34:05;23.70;99.90
22112;DHT22;11222;50.872;4.312;2022-07-06T12:36:31;23.90;99.90
22112;DHT22;11222;50.872;4.312;2022-07-06T12:39:11;23.70;99.90
22112;DHT22;11222;50.872;4.312;2022-07-06T12:41:37;23.90;99.90
22112;DHT22;11222;50.872;4.312;2022-07-06T12:44:05;23.80;99.90
22112;DHT22;11222;50.872;4.312;2022-07-06T12:48:59;23.50;99.90
22112;DHT22;11222;50.872;4.312;2022-07-06T12:51:25;23.60;99.90
22112;DHT22;11222;50.872;4.312;2022-07-06T12:53:51;23.70;99.90
22112;DHT22;11222;50.872;4.312;2022-07-06T12:56:17;24.00;99.90
22112;DHT22;11222;50.872;4.312;2022-07-06T12:59:00;24.30;99.90
22112;DHT22;11222;50.872;4.312;2022-07-06T13:01:26;24.80;99.90
22112;DHT22;11222;50.872;4.312;2022-07-06T13:03:57;24.80;99.90
22112;DHT22;11222;50.872;4.312;2022-07-06T13:06:34;25.20;99.90
22112;DHT22;11222;50.872;4.312;2022-07-06T13:09:00;24.90;99.90
22112;DHT22;11222;50.872;4.312;2022-07-06T13:11:26;24.50;99.90
22112;DHT22;11222;50.872;4.312;2022-07-06T13:13:52;24.50;99.90
22112;DHT22;11222;50.872;4.312;2022-07-06T13:16:18;24.30;99.90
22112;DHT22;11222;50.872;4.312;2022-07-06T13:18:44;24.20;99.90
22112;DHT22;11222;50.872;4.312;2022-07-06T13:21:09;24.50;99.90
22112;DHT22;11222;50.872;4.312;2022-07-06T13:23:36;24.70;99.90
22112;DHT22;11222;50.872;4.312;2022-07-06T13:26:02;24.60;99.90
22112;DHT22;11222;50.872;4.312;2022-07-06T13:28:28;24.50;99.90
22112;DHT22;11222;50.872;4.312;2022-07-06T13:30:53;24.50;99.90
22112;DHT22;11222;50.872;4.312;2022-07-06T13:33:19;24.70;99.90
22112;DHT22;11222;50.872;4.312;2022-07-06T13:35:45;24.60;99.90
22112;DHT22;11222;50.872;4.312;2022-07-06T13:38:11;24.50;99.90
22112;DHT22;11222;50.872;4.312;2022-07-06T13:40:36;24.40;99.90
22112;DHT22;11222;50.872;4.312;2022-07-06T13:43:02;24.00;99.90
22112;DHT22;11222;50.872;4.312;2022-07-06T13:45:27;23.70;99.90
22112;DHT22;11222;50.872;4.312;2022-07-06T13:47:53;23.60;99.90
22112;DHT22;11222;50.872;4.312;2022-07-06T13:50:19;23.40;99.90
22112;DHT22;11222;50.872;4.312;2022-07-06T13:52:44;23.60;99.90
22112;DHT22;11222;50.872;4.312;2022-07-06T13:55:10;23.80;99.90
22112;DHT22;11222;50.872;4.312;2022-07-06T13:57:36;23.90;99.90
22112;DHT22;11222;50.872;4.312;2022-07-06T14:00:03;23.60;99.90
22112;DHT22;11222;50.872;4.312;2022-07-06T14:02:29;23.50;99.90
22112;DHT22;11222;50.872;4.312;2022-07-06T14:04:55;23.70;99.90
22112;DHT22;11222;50.872;4.312;2022-07-06T14:07:20;23.90;99.90
22112;DHT22;11222;50.872;4.312;2022-07-06T14:09:46;24.10;99.90
22112;DHT22;11222;50.872;4.312;2022-07-06T14:12:17;24.20;99.90
22112;DHT22;11222;50.872;4.312;2022-07-06T14:14:43;24.40;99.90
22112;DHT22;11222;50.872;4.312;2022-07-06T14:17:08;24.50;99.90
22112;DHT22;11222;50.872;4.312;2022-07-06T14:19:34;24.60;99.90
22112;DHT22;11222;50.872;4.312;2022-07-06T14:22:00;24.80;99.90
22112;DHT22;11222;50.872;4.312;2022-07-06T14:24:25;24.90;99.90
22112;DHT22;11222;50.872;4.312;2022-07-06T14:26:51;24.70;99.90
22112;DHT22;11222;50.872;4.312;2022-07-06T14:29:17;24.70;99.90
22112;DHT22;11222;50.872;4.312;2022-07-06T14:31:42;24.70;99.90
22112;DHT22;11222;50.872;4.312;2022-07-06T14:34:08;25.00;99.90
22112;DHT22;11222;50.872;4.312;2022-07-06T14:36:35;25.00;99.90
22112;DHT22;11222;50.872;4.312;2022-07-06T14:39:03;25.20;99.90
22112;DHT22;11222;50.872;4.312;2022-07-06T14:41:29;25.10;99.90
22112;DHT22;11222;50.872;4.312;2022-07-06T14:43:55;25.40;99.90
22112;DHT22;11222;50.872;4.312;2022-07-06T14:46:21;25.50;99.90
22112;DHT22;11222;50.872;4.312;2022-07-06T14:48:46;25.20;99.90
22112;DHT22;11222;50.872;4.312;2022-07-06T14:51:12;25.30;99.90
22112;DHT22;11222;50.872;4.312;2022-07-06T14:53:38;25.20;99.90
22112;DHT22;11222;50.872;4.312;2022-07-06T14:56:04;25.00;99.90
22112;DHT22;11222;50.872;4.312;2022-07-06T14:58:30;24.80;99.90
22112;DHT22;11222;50.872;4.312;2022-07-06T15:00:55;24.60;99.90
22112;DHT22;11222;50.872;4.312;2022-07-06T15:03:21;24.70;99.90
22112;DHT22;11222;50.872;4.312;2022-07-06T15:05:48;24.80;99.90
22112;DHT22;11222;50.872;4.312;2022-07-06T15:08:14;24.50;99.90
22112;DHT22;11222;50.872;4.312;2022-07-06T15:10:41;24.60;99.90
22112;DHT22;11222;50.872;4.312;2022-07-06T15:13:07;24.80;99.90
22112;DHT22;11222;50.872;4.312;2022-07-06T15:15:33;24.70;99.90
22112;DHT22;11222;50.872;4.312;2022-07-06T15:17:59;24.80;99.90
22112;DHT22;11222;50.872;4.312;2022-07-06T15:20:24;24.50;99.90
22112;DHT22;11222;50.872;4.312;2022-07-06T15:22:50;24.40;99.90
22112;DHT22;11222;50.872;4.312;2022-07-06T15:25:16;24.40;99.90
22112;DHT22;11222;50.872;4.312;2022-07-06T15:27:41;24.60;99.90
22112;DHT22;11222;50.872;4.312;2022-07-06T15:30:07;24.90;99.90
22112;DHT22;11222;50.872;4.312;2022-07-06T15:32:33;24.70;99.90
22112;DHT22;11222;50.872;4.312;2022-07-06T15:34:59;24.70;99.90
22112;DHT22;11222;50.872;4.312;2022-07-06T15:37:24;24.60;99.90
22112;DHT22;11222;50.872;4.312;2022-07-06T15:39:50;24.50;99.90
22112;DHT22;11222;50.872;4.312;2022-07-06T15:42:16;24.30;99.90
22112;DHT22;11222;50.872;4.312;2022-07-06T15:44:41;24.50;99.90